createdAt,value
2023-05-05T00:01:14.313Z,9.59
2023-05-05T00:04:17.842Z,9.58
2023-05-05T00:07:19.676Z,9.59
2023-05-05T00:10:21.789Z,9.57
2023-05-05T00:13:23.947Z,9.55
2023-05-05T00:16:25.929Z,9.52
2023-05-05T00:19:27.877Z,9.50
2023-05-05T00:22:29.607Z,9.47
2023-05-05T00:25:31.278Z,9.45
2023-05-05T00:28:33.149Z,9.44
2023-05-05T00:31:34.999Z,9.40
2023-05-05T00:34:36.756Z,9.37
2023-05-05T00:37:38.480Z,9.30
2023-05-05T00:40:40.269Z,9.29
2023-05-05T00:43:42.094Z,9.25
2023-05-05T00:46:44.270Z,9.22
2023-05-05T00:49:46.376Z,9.19
2023-05-05T00:52:48.582Z,9.17
2023-05-05T00:55:51.239Z,9.11
2023-05-05T00:58:53.593Z,9.02
2023-05-05T01:01:55.479Z,8.96
2023-05-05T01:04:58.387Z,8.88
2023-05-05T01:08:09.368Z,8.84
2023-05-05T01:11:20.710Z,8.84
2023-05-05T01:14:45.217Z,8.82
2023-05-05T01:17:56.122Z,8.84
2023-05-05T01:21:08.082Z,8.83
2023-05-05T01:24:39.074Z,8.81
2023-05-05T01:28:13.934Z,8.83
2023-05-05T01:31:42.232Z,8.81
2023-05-05T01:34:48.242Z,8.81
2023-05-05T01:37:59.177Z,8.80
2023-05-05T01:41:09.093Z,8.80
2023-05-05T01:44:15.256Z,8.80
2023-05-05T01:47:19.462Z,8.83
2023-05-05T01:50:22.261Z,8.82
2023-05-05T01:53:25.782Z,8.79
2023-05-05T01:56:29.145Z,8.77
2023-05-05T01:59:32.569Z,8.70
2023-05-05T02:02:36.309Z,8.60
2023-05-05T02:05:39.947Z,8.54
2023-05-05T02:08:43.340Z,8.50
2023-05-05T02:11:45.468Z,8.45
2023-05-05T02:14:48.110Z,8.44
2023-05-05T02:17:52.855Z,8.38
2023-05-05T02:20:55.080Z,8.36
2023-05-05T02:23:57.130Z,8.37
2023-05-05T02:27:02.743Z,8.37
2023-05-05T02:30:08.699Z,8.41
2023-05-05T02:33:16.517Z,8.39
2023-05-05T02:36:21.948Z,8.40
2023-05-05T02:39:47.055Z,8.36
2023-05-05T02:42:57.098Z,8.26
2023-05-05T02:46:03.698Z,8.20
2023-05-05T02:49:07.350Z,8.11
2023-05-05T02:52:10.270Z,8.06
2023-05-05T02:55:15.730Z,7.94
2023-05-05T02:58:34.647Z,7.90
2023-05-05T03:02:06.914Z,7.83
2023-05-05T03:05:15.901Z,7.82
2023-05-05T03:09:02.276Z,7.82
2023-05-05T03:12:17.066Z,7.78
2023-05-05T03:15:36.452Z,7.77
2023-05-05T03:18:39.894Z,7.77
2023-05-05T03:21:42.441Z,7.78
2023-05-05T03:24:49.878Z,7.79
2023-05-05T03:27:52.444Z,7.75
2023-05-05T03:30:57.014Z,7.70
2023-05-05T03:33:59.705Z,7.61
2023-05-05T03:37:06.818Z,7.57
2023-05-05T03:40:09.637Z,7.51
2023-05-05T03:43:11.990Z,7.50
2023-05-05T03:46:15.020Z,7.49
2023-05-05T03:49:19.354Z,7.48
2023-05-05T03:52:23.231Z,7.50
2023-05-05T03:55:25.164Z,7.52
2023-05-05T03:58:26.912Z,7.52
2023-05-05T04:01:30.066Z,7.54
2023-05-05T04:04:32.899Z,7.54
2023-05-05T04:07:34.867Z,7.61
2023-05-05T04:10:37.196Z,7.68
2023-05-05T04:13:40.233Z,7.79
2023-05-05T04:16:42.250Z,7.86
2023-05-05T04:19:44.570Z,7.90
2023-05-05T04:22:47.905Z,7.93
2023-05-05T04:25:50.149Z,7.97
2023-05-05T04:28:52.412Z,8.02
2023-05-05T04:31:54.599Z,8.11
2023-05-05T04:34:56.463Z,8.21
2023-05-05T04:37:58.867Z,8.36
2023-05-05T04:41:00.867Z,8.53
2023-05-05T04:44:03.352Z,8.71
2023-05-05T04:47:05.859Z,8.84
2023-05-05T04:50:09.459Z,9.03
2023-05-05T04:53:11.538Z,9.21
2023-05-05T04:56:14.138Z,9.51
2023-05-05T04:59:16.451Z,9.82
2023-05-05T05:02:18.617Z,10.08
2023-05-05T05:05:25.155Z,10.24
2023-05-05T05:08:27.002Z,10.31
2023-05-05T05:11:29.114Z,10.45
2023-05-05T05:14:37.170Z,10.57
2023-05-05T05:17:39.331Z,10.69
2023-05-05T05:20:41.402Z,10.77
2023-05-05T05:23:43.934Z,10.82
2023-05-05T05:26:46.079Z,10.81
2023-05-05T05:29:48.077Z,10.80
2023-05-05T05:32:50.562Z,10.74
2023-05-05T05:35:53.149Z,10.64
2023-05-05T05:38:57.883Z,10.52
2023-05-05T05:41:59.855Z,10.41
2023-05-05T05:45:02.187Z,10.35
2023-05-05T05:48:05.379Z,10.49
2023-05-05T05:51:07.451Z,10.89
2023-05-05T05:54:09.367Z,11.24
2023-05-05T05:57:11.525Z,11.59
2023-05-05T06:00:14.444Z,11.82
2023-05-05T06:03:21.185Z,11.96
2023-05-05T06:06:26.222Z,12.02
2023-05-05T06:09:28.172Z,12.11
2023-05-05T06:12:31.035Z,12.23
2023-05-05T06:15:33.136Z,12.38
2023-05-05T06:18:37.375Z,12.54
2023-05-05T06:21:39.381Z,12.69
2023-05-05T06:24:42.586Z,12.81
2023-05-05T06:27:44.767Z,12.85
2023-05-05T06:30:47.580Z,12.88
2023-05-05T06:33:49.472Z,12.89
2023-05-05T06:36:51.786Z,13.03
2023-05-05T06:39:53.621Z,13.17
2023-05-05T06:42:55.682Z,13.35
2023-05-05T06:46:02.455Z,13.38
2023-05-05T06:49:04.463Z,13.37
2023-05-05T06:52:08.240Z,13.31
2023-05-05T06:55:10.276Z,13.22
2023-05-05T06:58:12.525Z,13.12
2023-05-05T07:01:14.659Z,13.05
2023-05-05T07:04:16.534Z,13.00
2023-05-05T07:07:18.415Z,12.96
2023-05-05T07:10:21.533Z,13.03
2023-05-05T07:13:23.298Z,13.22
2023-05-05T07:16:28.850Z,13.43
2023-05-05T07:19:30.824Z,13.65
2023-05-05T07:22:32.798Z,13.81
2023-05-05T07:25:35.015Z,14.00
2023-05-05T07:28:36.974Z,14.36
2023-05-05T07:31:38.897Z,14.69
2023-05-05T07:34:41.119Z,14.92
2023-05-05T07:37:46.071Z,15.11
2023-05-05T07:40:47.809Z,15.26
2023-05-05T07:43:49.580Z,15.33
2023-05-05T07:46:51.306Z,15.43
2023-05-05T07:49:53.566Z,15.59
2023-05-05T07:53:02.455Z,15.74
2023-05-05T07:56:15.565Z,15.94
2023-05-05T07:59:17.534Z,16.18
2023-05-05T08:02:22.750Z,16.36
2023-05-05T08:05:24.605Z,16.46
2023-05-05T08:08:27.393Z,16.45
2023-05-05T08:11:29.687Z,16.39
2023-05-05T08:14:31.926Z,16.31
2023-05-05T08:17:55.803Z,16.12
2023-05-05T08:20:57.742Z,16.13
2023-05-05T08:23:59.713Z,16.31
2023-05-05T08:27:01.975Z,16.53
2023-05-05T08:30:04.657Z,16.74
2023-05-05T08:33:06.820Z,16.93
2023-05-05T08:36:09.195Z,17.04
2023-05-05T08:39:11.025Z,17.12
2023-05-05T08:42:19.622Z,17.26
2023-05-05T08:45:29.848Z,17.35
2023-05-05T08:48:34.386Z,17.51
2023-05-05T08:51:44.262Z,17.69
2023-05-05T08:54:51.929Z,17.88
2023-05-05T08:57:53.638Z,18.02
2023-05-05T09:00:56.573Z,18.05
2023-05-05T09:03:59.401Z,18.13
2023-05-05T09:07:01.820Z,18.26
2023-05-05T09:10:05.277Z,18.32
2023-05-05T09:13:09.416Z,18.38
2023-05-05T09:16:11.652Z,18.51
2023-05-05T09:19:13.715Z,18.64
2023-05-05T09:22:15.906Z,18.77
2023-05-05T09:25:18.631Z,18.75
2023-05-05T09:28:20.775Z,18.86
2023-05-05T09:31:23.420Z,19.08
2023-05-05T09:34:25.783Z,19.42
2023-05-05T09:37:34.056Z,19.67
2023-05-05T09:40:53.788Z,19.78
2023-05-05T09:43:56.016Z,19.92
2023-05-05T09:46:58.533Z,19.89
2023-05-05T09:50:00.740Z,19.90
2023-05-05T09:53:03.582Z,19.92
2023-05-05T09:56:05.847Z,19.91
2023-05-05T09:59:11.252Z,19.85
2023-05-05T10:02:16.697Z,19.90
2023-05-05T10:05:19.526Z,19.92
2023-05-05T10:08:24.092Z,19.89
2023-05-05T10:11:26.409Z,19.85
2023-05-05T10:14:37.204Z,19.77
2023-05-05T10:18:05.921Z,19.67
2023-05-05T10:21:12.243Z,19.75
2023-05-05T10:24:39.222Z,20.10
2023-05-05T10:27:46.727Z,20.62
2023-05-05T10:30:51.442Z,21.02
2023-05-05T10:33:59.875Z,21.39
2023-05-05T10:37:02.342Z,21.66
2023-05-05T10:40:06.597Z,21.71
2023-05-05T10:43:08.839Z,21.70
2023-05-05T10:46:11.519Z,21.87
2023-05-05T10:49:43.091Z,22.06
2023-05-05T10:53:23.009Z,22.32
2023-05-05T10:59:38.929Z,22.16
2023-05-05T11:02:42.074Z,21.96
2023-05-05T11:06:09.257Z,21.73
2023-05-05T11:09:29.920Z,21.14
2023-05-05T11:12:33.661Z,20.51
2023-05-05T11:15:38.140Z,20.00
2023-05-05T11:18:43.289Z,19.46
2023-05-05T11:22:02.044Z,18.16
2023-05-05T11:25:41.706Z,17.56
2023-05-05T11:29:04.321Z,17.75
2023-05-05T11:32:20.134Z,18.07
2023-05-05T11:35:22.183Z,18.48
2023-05-05T11:38:32.865Z,19.01
2023-05-05T11:42:18.111Z,19.62
2023-05-05T11:45:22.081Z,20.04
2023-05-05T11:48:27.525Z,20.24
2023-05-05T11:51:29.414Z,20.31
2023-05-05T11:54:32.813Z,20.49
2023-05-05T11:57:34.814Z,20.94
2023-05-05T12:00:37.283Z,21.19
2023-05-05T12:03:40.009Z,21.31
2023-05-05T12:06:42.881Z,21.56
2023-05-05T12:09:47.207Z,21.64
2023-05-05T12:12:49.680Z,21.39
2023-05-05T12:15:51.877Z,21.20
2023-05-05T12:19:05.885Z,21.13
2023-05-05T12:22:07.940Z,20.94
2023-05-05T12:25:10.461Z,20.74
2023-05-05T12:28:12.274Z,20.59
2023-05-05T12:31:14.481Z,20.54
2023-05-05T12:34:17.137Z,20.74
2023-05-05T12:37:19.395Z,21.18
2023-05-05T12:40:52.078Z,21.61
2023-05-05T12:43:58.444Z,21.63
2023-05-05T12:47:00.563Z,21.69
2023-05-05T12:50:03.936Z,21.87
2023-05-05T12:53:05.911Z,21.93
2023-05-05T12:56:34.914Z,22.04
2023-05-05T12:59:36.740Z,22.25
2023-05-05T13:02:38.841Z,22.45
2023-05-05T13:05:41.261Z,22.50
2023-05-05T13:08:43.503Z,22.68
2023-05-05T13:11:45.469Z,23.04
2023-05-05T13:14:48.059Z,23.09
2023-05-05T13:17:50.147Z,23.10
2023-05-05T13:20:52.337Z,23.11
2023-05-05T13:23:55.962Z,23.41
2023-05-05T13:27:04.416Z,23.84
2023-05-05T13:30:07.427Z,23.94
2023-05-05T13:33:09.801Z,23.98
2023-05-05T13:36:12.141Z,23.78
2023-05-05T13:39:14.282Z,23.39
2023-05-05T13:42:16.392Z,23.12
2023-05-05T13:45:19.790Z,22.80
2023-05-05T13:48:24.600Z,22.63
2023-05-05T13:51:26.577Z,22.74
2023-05-05T13:54:28.664Z,22.75
2023-05-05T13:57:31.630Z,23.05
2023-05-05T14:00:35.013Z,23.53
2023-05-05T14:03:39.516Z,23.78
2023-05-05T14:06:41.619Z,23.74
2023-05-05T14:09:43.830Z,23.70
2023-05-05T14:12:46.010Z,23.63
2023-05-05T14:15:50.300Z,23.58
2023-05-05T14:18:53.916Z,23.66
2023-05-05T14:21:56.089Z,23.84
2023-05-05T14:24:58.688Z,23.78
2023-05-05T14:28:00.669Z,23.46
2023-05-05T14:31:02.695Z,22.95
2023-05-05T14:34:04.831Z,22.56
2023-05-05T14:37:06.705Z,22.18
2023-05-05T14:40:09.291Z,21.88
2023-05-05T14:43:11.805Z,21.52
2023-05-05T14:46:13.756Z,21.17
2023-05-05T14:49:15.535Z,20.77
2023-05-05T14:52:17.100Z,20.38
2023-05-05T14:55:19.223Z,19.99
2023-05-05T14:58:23.755Z,19.59
2023-05-05T15:01:26.113Z,19.24
2023-05-05T15:04:28.273Z,18.93
2023-05-05T15:07:30.186Z,18.68
2023-05-05T15:10:32.664Z,18.49
2023-05-05T15:13:35.895Z,18.27
2023-05-05T15:16:38.061Z,18.10
2023-05-05T15:19:39.939Z,17.96
2023-05-05T15:22:41.890Z,17.70
2023-05-05T15:25:44.166Z,17.37
2023-05-05T15:28:47.257Z,16.98
2023-05-05T15:31:51.009Z,16.61
2023-05-05T15:34:52.886Z,16.20
2023-05-05T15:37:54.953Z,15.88
2023-05-05T15:40:57.000Z,15.70
2023-05-05T15:43:59.090Z,15.55
2023-05-05T15:47:01.400Z,15.50
2023-05-05T15:50:03.342Z,15.52
2023-05-05T15:53:05.146Z,15.52
2023-05-05T15:56:07.138Z,15.50
2023-05-05T15:59:09.051Z,15.45
2023-05-05T16:02:11.077Z,15.42
2023-05-05T16:05:15.086Z,15.37
2023-05-05T16:08:17.092Z,15.28
2023-05-05T16:11:22.327Z,15.23
2023-05-05T16:14:24.821Z,15.19
2023-05-05T16:17:26.965Z,15.14
2023-05-05T16:20:29.925Z,15.12
2023-05-05T16:23:31.573Z,15.12
2023-05-05T16:26:34.904Z,15.08
2023-05-05T16:29:36.691Z,15.14
2023-05-05T16:32:38.744Z,14.98
2023-05-05T16:35:44.330Z,14.94
2023-05-05T16:38:47.285Z,14.62
2023-05-05T16:41:49.162Z,14.43
2023-05-05T16:44:51.398Z,14.39
2023-05-05T16:47:55.623Z,14.18
2023-05-05T16:50:57.849Z,14.03
2023-05-05T16:53:59.834Z,13.85
2023-05-05T16:57:04.012Z,13.76
2023-05-05T17:00:07.257Z,13.70
2023-05-05T17:03:09.725Z,13.72
2023-05-05T17:06:13.502Z,13.68
2023-05-05T17:09:15.841Z,13.59
2023-05-05T17:12:18.884Z,13.57
2023-05-05T17:15:22.019Z,13.58
2023-05-05T17:18:25.997Z,13.53
2023-05-05T17:21:29.494Z,13.54
2023-05-05T17:24:33.283Z,13.60
2023-05-05T17:27:35.357Z,13.55
2023-05-05T17:30:37.992Z,13.52
2023-05-05T17:33:43.018Z,13.60
2023-05-05T17:36:46.097Z,13.54
2023-05-05T17:39:51.332Z,13.54
2023-05-05T17:42:54.203Z,13.51
2023-05-05T17:45:57.207Z,13.55
2023-05-05T17:49:00.623Z,13.48
2023-05-05T17:52:02.811Z,13.41
2023-05-05T17:55:08.770Z,13.38
2023-05-05T17:58:11.024Z,13.39
2023-05-05T18:01:26.828Z,13.41
2023-05-05T18:04:29.396Z,13.27
2023-05-05T18:07:33.487Z,13.27
2023-05-05T18:10:35.459Z,13.24
2023-05-05T18:13:38.579Z,13.19
2023-05-05T18:16:44.002Z,13.19
2023-05-05T18:19:48.924Z,13.21
2023-05-05T18:22:51.031Z,13.20
2023-05-05T18:25:53.225Z,13.18
2023-05-05T18:28:55.179Z,13.14
2023-05-05T18:31:57.094Z,13.08
2023-05-05T18:34:59.043Z,13.11
2023-05-05T18:38:01.321Z,13.12
2023-05-05T18:41:03.309Z,13.17
2023-05-05T18:44:05.182Z,13.16
2023-05-05T18:47:07.956Z,13.12
2023-05-05T18:50:10.489Z,13.13
2023-05-05T18:53:14.845Z,13.07
2023-05-05T18:56:16.647Z,13.12
2023-05-05T18:59:18.702Z,12.97
2023-05-05T19:02:20.413Z,12.95
2023-05-05T19:05:22.202Z,12.97
2023-05-05T19:08:24.178Z,12.91
2023-05-05T19:11:26.274Z,12.85
2023-05-05T19:14:28.307Z,12.86
2023-05-05T19:17:30.577Z,12.87
2023-05-05T19:20:32.566Z,12.84
2023-05-05T19:23:36.212Z,12.85
2023-05-05T19:26:38.209Z,12.87
2023-05-05T19:29:40.701Z,12.89
2023-05-05T19:32:42.498Z,12.87
2023-05-05T19:35:45.009Z,12.88
2023-05-05T19:38:47.043Z,12.87
2023-05-05T19:41:49.020Z,12.86
2023-05-05T19:44:50.906Z,12.87
2023-05-05T19:47:52.920Z,12.88
2023-05-05T19:50:54.862Z,12.88
2023-05-05T19:53:56.924Z,12.88
2023-05-05T19:57:00.859Z,12.87
2023-05-05T20:00:02.752Z,12.87
2023-05-05T20:03:07.134Z,12.84
2023-05-05T20:06:09.043Z,12.83
2023-05-05T20:09:10.829Z,12.81
2023-05-05T20:12:13.021Z,12.76
2023-05-05T20:15:18.916Z,12.73
2023-05-05T20:18:20.876Z,12.75
2023-05-05T20:21:22.948Z,12.73
2023-05-05T20:24:25.070Z,12.69
2023-05-05T20:27:28.643Z,12.70
2023-05-05T20:30:31.404Z,12.69
2023-05-05T20:33:33.989Z,12.71
2023-05-05T20:36:35.882Z,12.73
2023-05-05T20:39:38.021Z,12.74
2023-05-05T20:42:39.924Z,12.72
2023-05-05T20:45:42.048Z,12.71
2023-05-05T20:48:44.537Z,12.68
2023-05-05T20:51:46.701Z,12.66
2023-05-05T20:54:48.500Z,12.59
2023-05-05T20:57:50.552Z,12.58
2023-05-05T21:00:52.728Z,12.54
2023-05-05T21:03:54.931Z,12.52
2023-05-05T21:06:58.847Z,12.48
2023-05-05T21:10:03.316Z,12.46
2023-05-05T21:13:05.321Z,12.41
2023-05-05T21:16:07.663Z,12.39
2023-05-05T21:19:09.626Z,12.39
2023-05-05T21:22:11.546Z,12.39
2023-05-05T21:25:21.445Z,12.40
2023-05-05T21:28:23.772Z,12.36
2023-05-05T21:31:26.174Z,12.34
2023-05-05T21:34:28.340Z,12.33
2023-05-05T21:37:30.905Z,12.34
2023-05-05T21:40:33.052Z,12.34
2023-05-05T21:43:35.324Z,12.34
2023-05-05T21:46:37.449Z,12.34
2023-05-05T21:49:39.620Z,12.28
2023-05-05T21:52:41.622Z,12.26
2023-05-05T21:55:43.620Z,12.25
2023-05-05T21:58:46.002Z,12.26
2023-05-05T22:01:54.509Z,12.25
2023-05-05T22:04:56.583Z,12.25
2023-05-05T22:07:58.427Z,12.21
2023-05-05T22:11:00.330Z,12.15
2023-05-05T22:14:02.408Z,12.09
2023-05-05T22:17:04.358Z,11.97
2023-05-05T22:20:08.966Z,11.89
2023-05-05T22:23:11.315Z,11.79
2023-05-05T22:26:13.290Z,11.66
2023-05-05T22:29:15.145Z,11.59
2023-05-05T22:32:17.254Z,11.51
2023-05-05T22:35:19.400Z,11.48
2023-05-05T22:38:21.247Z,11.43
2023-05-05T22:41:23.228Z,11.40
2023-05-05T22:44:25.440Z,11.40
2023-05-05T22:47:27.108Z,11.43
2023-05-05T22:50:29.104Z,11.47
2023-05-05T22:53:30.928Z,11.54
2023-05-05T22:56:32.780Z,11.58
2023-05-05T22:59:34.586Z,11.63
2023-05-05T23:02:37.218Z,11.66
2023-05-05T23:05:39.142Z,11.64
2023-05-05T23:08:42.053Z,11.64
2023-05-05T23:11:43.882Z,11.68
2023-05-05T23:14:46.047Z,11.68
2023-05-05T23:17:47.952Z,11.69
2023-05-05T23:20:49.870Z,11.73
2023-05-05T23:23:51.927Z,11.74
2023-05-05T23:26:53.765Z,11.78
2023-05-05T23:29:55.697Z,11.80
2023-05-05T23:32:58.023Z,11.80
2023-05-05T23:35:59.837Z,11.78
2023-05-05T23:39:02.865Z,11.80
2023-05-05T23:42:04.563Z,11.80
2023-05-05T23:45:06.863Z,11.85
2023-05-05T23:48:08.876Z,11.80
2023-05-05T23:51:10.887Z,11.78
2023-05-05T23:54:12.705Z,11.80
2023-05-05T23:57:14.527Z,11.79
